sensor_id;sensor_type;location;lat;lon;timestamp;pressure;altitude;pressure_sealevel;temperature;humidity
19676;BME280;39539;52.202;9.876;2023-03-19T00:02:00;100442.56;;;9.57;100.00
19676;BME280;39539;52.202;9.876;2023-03-19T00:04:26;100439.69;;;9.52;100.00
19676;BME280;39539;52.202;9.876;2023-03-19T00:06:52;100443.97;;;9.66;100.00
19676;BME280;39539;52.202;9.876;2023-03-19T00:09:18;100444.56;;;9.75;100.00
19676;BME280;39539;52.202;9.876;2023-03-19T00:11:44;100437.22;;;9.70;100.00
19676;BME280;39539;52.202;9.876;2023-03-19T00:14:09;100436.41;;;9.70;100.00
19676;BME280;39539;52.202;9.876;2023-03-19T00:16:35;100447.63;;;9.45;100.00
19676;BME280;39539;52.202;9.876;2023-03-19T00:19:01;100443.78;;;9.34;100.00
19676;BME280;39539;52.202;9.876;2023-03-19T00:21:27;100449.88;;;9.28;100.00
19676;BME280;39539;52.202;9.876;2023-03-19T00:23:52;100435.81;;;9.21;100.00
19676;BME280;39539;52.202;9.876;2023-03-19T00:26:18;100456.22;;;9.20;100.00
19676;BME280;39539;52.202;9.876;2023-03-19T00:28:43;100452.34;;;9.16;100.00
19676;BME280;39539;52.202;9.876;2023-03-19T00:31:11;100453.97;;;9.17;100.00
19676;BME280;39539;52.202;9.876;2023-03-19T00:33:41;100453.34;;;9.02;100.00
19676;BME280;39539;52.202;9.876;2023-03-19T00:36:07;100435.38;;;8.77;100.00
19676;BME280;39539;52.202;9.876;2023-03-19T00:38:34;100435.56;;;8.76;100.00
19676;BME280;39539;52.202;9.876;2023-03-19T00:41:00;100440.06;;;8.89;100.00
19676;BME280;39539;52.202;9.876;2023-03-19T00:43:26;100421.72;;;8.81;100.00
19676;BME280;39539;52.202;9.876;2023-03-19T00:45:53;100446.59;;;8.93;100.00
19676;BME280;39539;52.202;9.876;2023-03-19T00:48:21;100444.53;;;8.88;100.00
19676;BME280;39539;52.202;9.876;2023-03-19T00:50:47;100427.81;;;8.81;100.00
19676;BME280;39539;52.202;9.876;2023-03-19T00:53:12;100426.19;;;8.80;100.00
19676;BME280;39539;52.202;9.876;2023-03-19T00:55:39;100448.63;;;8.84;100.00
19676;BME280;39539;52.202;9.876;2023-03-19T00:58:04;100442.25;;;8.65;100.00
19676;BME280;39539;52.202;9.876;2023-03-19T01:00:34;100443.63;;;8.54;100.00
19676;BME280;39539;52.202;9.876;2023-03-19T01:03:00;100439.75;;;8.50;100.00
19676;BME280;39539;52.202;9.876;2023-03-19T01:05:26;100444.28;;;8.63;100.00
19676;BME280;39539;52.202;9.876;2023-03-19T01:07:53;100434.31;;;8.65;100.00
19676;BME280;39539;52.202;9.876;2023-03-19T01:10:19;100426.94;;;8.54;100.00
19676;BME280;39539;52.202;9.876;2023-03-19T01:12:44;100434.06;;;8.53;100.00
19676;BME280;39539;52.202;9.876;2023-03-19T01:15:10;100445.31;;;8.62;100.00
19676;BME280;39539;52.202;9.876;2023-03-19T01:17:37;100448.56;;;8.64;100.00
19676;BME280;39539;52.202;9.876;2023-03-19T01:20:06;100448.41;;;8.72;100.00
19676;BME280;39539;52.202;9.876;2023-03-19T01:22:38;100449.66;;;8.83;100.00
19676;BME280;39539;52.202;9.876;2023-03-19T01:25:05;100444.72;;;8.80;100.00
19676;BME280;39539;52.202;9.876;2023-03-19T01:27:31;100434.75;;;8.75;100.00
19676;BME280;39539;52.202;9.876;2023-03-19T01:29:57;100440.22;;;8.74;100.00
19676;BME280;39539;52.202;9.876;2023-03-19T01:32:22;100449.19;;;8.66;100.00
19676;BME280;39539;52.202;9.876;2023-03-19T01:34:47;100442.66;;;8.56;100.00
19676;BME280;39539;52.202;9.876;2023-03-19T01:37:16;100441.16;;;8.46;100.00
19676;BME280;39539;52.202;9.876;2023-03-19T01:39:41;100430.09;;;8.29;100.00
19676;BME280;39539;52.202;9.876;2023-03-19T01:42:09;100448.66;;;8.36;100.00
19676;BME280;39539;52.202;9.876;2023-03-19T01:44:38;100452.09;;;8.30;100.00
19676;BME280;39539;52.202;9.876;2023-03-19T01:47:15;100452.69;;;8.32;100.00
19676;BME280;39539;52.202;9.876;2023-03-19T01:49:42;100437.09;;;8.09;100.00
19676;BME280;39539;52.202;9.876;2023-03-19T01:52:12;100438.78;;;8.17;100.00
19676;BME280;39539;52.202;9.876;2023-03-19T01:54:38;100444.72;;;8.19;100.00
19676;BME280;39539;52.202;9.876;2023-03-19T01:57:10;100422.44;;;8.06;100.00
19676;BME280;39539;52.202;9.876;2023-03-19T01:59:41;100441.44;;;8.17;100.00
19676;BME280;39539;52.202;9.876;2023-03-19T02:02:30;100453.72;;;8.31;100.00
19676;BME280;39539;52.202;9.876;2023-03-19T02:05:14;100456.25;;;8.46;100.00
19676;BME280;39539;52.202;9.876;2023-03-19T02:07:46;100456.69;;;8.49;100.00
19676;BME280;39539;52.202;9.876;2023-03-19T02:10:14;100453.41;;;8.47;100.00
19676;BME280;39539;52.202;9.876;2023-03-19T02:12:41;100458.19;;;8.30;100.00
19676;BME280;39539;52.202;9.876;2023-03-19T02:15:08;100438.53;;;8.12;100.00
19676;BME280;39539;52.202;9.876;2023-03-19T02:17:34;100445.50;;;8.13;100.00
19676;BME280;39539;52.202;9.876;2023-03-19T02:20:07;100448.72;;;8.08;100.00
19676;BME280;39539;52.202;9.876;2023-03-19T02:22:49;100441.59;;;8.15;100.00
19676;BME280;39539;52.202;9.876;2023-03-19T02:28:14;100444.31;;;8.22;100.00
19676;BME280;39539;52.202;9.876;2023-03-19T02:30:43;100437.00;;;8.24;100.00
19676;BME280;39539;52.202;9.876;2023-03-19T02:33:12;100441.25;;;8.18;100.00
19676;BME280;39539;52.202;9.876;2023-03-19T02:35:39;100443.44;;;8.15;100.00
19676;BME280;39539;52.202;9.876;2023-03-19T02:38:05;100443.84;;;8.12;100.00
19676;BME280;39539;52.202;9.876;2023-03-19T02:40:35;100440.94;;;8.00;100.00
19676;BME280;39539;52.202;9.876;2023-03-19T02:43:03;100432.38;;;7.98;100.00
19676;BME280;39539;52.202;9.876;2023-03-19T02:45:30;100451.38;;;8.15;100.00
19676;BME280;39539;52.202;9.876;2023-03-19T02:47:56;100452.03;;;8.17;100.00
19676;BME280;39539;52.202;9.876;2023-03-19T02:50:21;100455.13;;;8.27;100.00
19676;BME280;39539;52.202;9.876;2023-03-19T02:52:47;100450.22;;;8.24;100.00
19676;BME280;39539;52.202;9.876;2023-03-19T02:55:12;100450.34;;;8.09;100.00
19676;BME280;39539;52.202;9.876;2023-03-19T02:57:38;100456.03;;;8.06;100.00
19676;BME280;39539;52.202;9.876;2023-03-19T03:00:04;100451.13;;;8.03;100.00
19676;BME280;39539;52.202;9.876;2023-03-19T03:02:30;100455.22;;;8.05;100.00
19676;BME280;39539;52.202;9.876;2023-03-19T03:04:57;100446.66;;;8.03;100.00
19676;BME280;39539;52.202;9.876;2023-03-19T03:07:23;100451.38;;;8.08;100.00
19676;BME280;39539;52.202;9.876;2023-03-19T03:09:48;100449.13;;;8.12;100.00
19676;BME280;39539;52.202;9.876;2023-03-19T03:12:13;100449.53;;;8.08;100.00
19676;BME280;39539;52.202;9.876;2023-03-19T03:14:39;100454.44;;;8.12;100.00
19676;BME280;39539;52.202;9.876;2023-03-19T03:17:05;100463.41;;;8.17;100.00
19676;BME280;39539;52.202;9.876;2023-03-19T03:19:32;100466.69;;;8.13;100.00
19676;BME280;39539;52.202;9.876;2023-03-19T03:21:58;100452.09;;;7.95;100.00
19676;BME280;39539;52.202;9.876;2023-03-19T03:24:24;100462.13;;;8.00;100.00
19676;BME280;39539;52.202;9.876;2023-03-19T03:26:50;100460.28;;;8.00;100.00
19676;BME280;39539;52.202;9.876;2023-03-19T03:29:15;100455.38;;;7.97;100.00
19676;BME280;39539;52.202;9.876;2023-03-19T03:31:40;100457.56;;;7.87;100.00
19676;BME280;39539;52.202;9.876;2023-03-19T03:34:06;100449.69;;;7.65;100.00
19676;BME280;39539;52.202;9.876;2023-03-19T03:36:31;100475.38;;;7.72;100.00
19676;BME280;39539;52.202;9.876;2023-03-19T03:38:57;100460.69;;;7.69;100.00
19676;BME280;39539;52.202;9.876;2023-03-19T03:41:23;100459.16;;;7.81;100.00
19676;BME280;39539;52.202;9.876;2023-03-19T03:43:49;100445.34;;;7.86;100.00
19676;BME280;39539;52.202;9.876;2023-03-19T03:46:15;100478.81;;;8.00;100.00
19676;BME280;39539;52.202;9.876;2023-03-19T03:48:40;100477.19;;;7.99;100.00
19676;BME280;39539;52.202;9.876;2023-03-19T03:51:05;100468.22;;;8.00;100.00
19676;BME280;39539;52.202;9.876;2023-03-19T03:53:31;100460.41;;;7.85;100.00
19676;BME280;39539;52.202;9.876;2023-03-19T03:55:58;100458.16;;;7.89;100.00
19676;BME280;39539;52.202;9.876;2023-03-19T03:58:23;100484.06;;;7.94;100.00
19676;BME280;39539;52.202;9.876;2023-03-19T04:00:50;100483.19;;;7.86;100.00
19676;BME280;39539;52.202;9.876;2023-03-19T04:03:17;100471.66;;;7.94;100.00
19676;BME280;39539;52.202;9.876;2023-03-19T04:05:43;100464.97;;;7.98;100.00
19676;BME280;39539;52.202;9.876;2023-03-19T04:08:08;100471.75;;;8.14;100.00
19676;BME280;39539;52.202;9.876;2023-03-19T04:10:34;100464.22;;;8.11;100.00
19676;BME280;39539;52.202;9.876;2023-03-19T04:13:01;100459.88;;;8.03;100.00
19676;BME280;39539;52.202;9.876;2023-03-19T04:15:26;100459.69;;;7.98;100.00
19676;BME280;39539;52.202;9.876;2023-03-19T04:17:52;100477.75;;;7.95;100.00
19676;BME280;39539;52.202;9.876;2023-03-19T04:20:17;100455.47;;;7.76;100.00
19676;BME280;39539;52.202;9.876;2023-03-19T04:22:44;100460.91;;;7.68;100.00
19676;BME280;39539;52.202;9.876;2023-03-19T04:25:10;100461.47;;;7.63;100.00
19676;BME280;39539;52.202;9.876;2023-03-19T04:27:35;100451.09;;;7.61;100.00
19676;BME280;39539;52.202;9.876;2023-03-19T04:30:00;100458.25;;;7.68;100.00
19676;BME280;39539;52.202;9.876;2023-03-19T04:32:26;100462.78;;;7.74;100.00
19676;BME280;39539;52.202;9.876;2023-03-19T04:34:52;100462.78;;;7.74;100.00
19676;BME280;39539;52.202;9.876;2023-03-19T04:37:17;100448.47;;;7.68;100.00
19676;BME280;39539;52.202;9.876;2023-03-19T04:39:42;100448.06;;;7.64;100.00
19676;BME280;39539;52.202;9.876;2023-03-19T04:42:09;100462.28;;;7.63;100.00
19676;BME280;39539;52.202;9.876;2023-03-19T04:44:35;100462.91;;;7.65;100.00
19676;BME280;39539;52.202;9.876;2023-03-19T04:47:02;100460.06;;;7.67;100.00
19676;BME280;39539;52.202;9.876;2023-03-19T04:49:27;100461.22;;;7.86;100.00
19676;BME280;39539;52.202;9.876;2023-03-19T04:51:53;100455.09;;;7.85;100.00
19676;BME280;39539;52.202;9.876;2023-03-19T04:54:18;100444.53;;;7.85;100.00
19676;BME280;39539;52.202;9.876;2023-03-19T04:56:44;100456.19;;;7.98;100.00
19676;BME280;39539;52.202;9.876;2023-03-19T04:59:10;100460.25;;;7.94;100.00
19676;BME280;39539;52.202;9.876;2023-03-19T05:01:36;100464.28;;;7.90;100.00
19676;BME280;39539;52.202;9.876;2023-03-19T05:04:02;100470.03;;;7.93;100.00
19676;BME280;39539;52.202;9.876;2023-03-19T05:06:29;100462.38;;;7.77;100.00
19676;BME280;39539;52.202;9.876;2023-03-19T05:08:55;100476.00;;;7.74;100.00
19676;BME280;39539;52.202;9.876;2023-03-19T05:11:21;100468.00;;;7.67;100.00
19676;BME280;39539;52.202;9.876;2023-03-19T05:13:46;100458.91;;;7.48;100.00
19676;BME280;39539;52.202;9.876;2023-03-19T05:16:11;100481.38;;;7.59;100.00
19676;BME280;39539;52.202;9.876;2023-03-19T05:18:38;100468.31;;;7.51;100.00
19676;BME280;39539;52.202;9.876;2023-03-19T05:21:04;100481.56;;;7.57;100.00
19676;BME280;39539;52.202;9.876;2023-03-19T05:23:29;100471.09;;;7.42;100.00
19676;BME280;39539;52.202;9.876;2023-03-19T05:25:58;100479.66;;;7.45;100.00
19676;BME280;39539;52.202;9.876;2023-03-19T05:28:24;100482.09;;;7.46;100.00
19676;BME280;39539;52.202;9.876;2023-03-19T05:30:50;100482.19;;;7.59;100.00
19676;BME280;39539;52.202;9.876;2023-03-19T05:33:15;100492.69;;;7.74;100.00
19676;BME280;39539;52.202;9.876;2023-03-19T05:35:41;100471.38;;;7.54;100.00
19676;BME280;39539;52.202;9.876;2023-03-19T05:38:06;100489.53;;;7.64;100.00
19676;BME280;39539;52.202;9.876;2023-03-19T05:40:32;100487.09;;;7.62;100.00
19676;BME280;39539;52.202;9.876;2023-03-19T05:43:00;100467.91;;;7.54;100.00
19676;BME280;39539;52.202;9.876;2023-03-19T05:45:25;100474.25;;;7.59;100.00
19676;BME280;39539;52.202;9.876;2023-03-19T05:47:50;100496.13;;;7.75;100.00
19676;BME280;39539;52.202;9.876;2023-03-19T05:50:17;100488.03;;;7.76;100.00
19676;BME280;39539;52.202;9.876;2023-03-19T05:52:44;100497.06;;;7.88;100.00
19676;BME280;39539;52.202;9.876;2023-03-19T05:55:09;100486.03;;;7.85;100.00
19676;BME280;39539;52.202;9.876;2023-03-19T05:57:35;100495.06;;;7.97;100.00
19676;BME280;39539;52.202;9.876;2023-03-19T06:00:01;100497.16;;;8.02;100.00
19676;BME280;39539;52.202;9.876;2023-03-19T06:02:26;100473.25;;;7.88;100.00
19676;BME280;39539;52.202;9.876;2023-03-19T06:04:53;100484.09;;;8.00;100.00
19676;BME280;39539;52.202;9.876;2023-03-19T06:07:18;100480.13;;;8.18;100.00
19676;BME280;39539;52.202;9.876;2023-03-19T06:09:43;100476.50;;;8.25;100.00
19676;BME280;39539;52.202;9.876;2023-03-19T06:12:09;100492.66;;;8.37;100.00
19676;BME280;39539;52.202;9.876;2023-03-19T06:14:35;100492.94;;;8.49;100.00
19676;BME280;39539;52.202;9.876;2023-03-19T06:17:00;100489.13;;;8.58;100.00
19676;BME280;39539;52.202;9.876;2023-03-19T06:19:26;100501.63;;;8.84;100.00
19676;BME280;39539;52.202;9.876;2023-03-19T06:21:52;100493.13;;;9.09;100.00
19676;BME280;39539;52.202;9.876;2023-03-19T06:24:19;100493.38;;;9.40;100.00
19676;BME280;39539;52.202;9.876;2023-03-19T06:26:44;100502.53;;;9.44;100.00
19676;BME280;39539;52.202;9.876;2023-03-19T06:29:15;100511.13;;;9.53;100.00
19676;BME280;39539;52.202;9.876;2023-03-19T06:31:41;100518.47;;;9.58;100.00
19676;BME280;39539;52.202;9.876;2023-03-19T06:34:06;100514.00;;;9.72;100.00
19676;BME280;39539;52.202;9.876;2023-03-19T06:36:32;100515.97;;;10.29;100.00
19676;BME280;39539;52.202;9.876;2023-03-19T06:38:57;100521.94;;;10.76;100.00
19676;BME280;39539;52.202;9.876;2023-03-19T06:41:22;100519.13;;;10.65;100.00
19676;BME280;39539;52.202;9.876;2023-03-19T06:43:49;100511.59;;;10.55;100.00
19676;BME280;39539;52.202;9.876;2023-03-19T06:46:14;100505.06;;;10.44;100.00
19676;BME280;39539;52.202;9.876;2023-03-19T06:48:41;100517.63;;;10.30;100.00
19676;BME280;39539;52.202;9.876;2023-03-19T06:51:07;100520.69;;;10.01;100.00
19676;BME280;39539;52.202;9.876;2023-03-19T06:53:33;100515.00;;;9.77;100.00
19676;BME280;39539;52.202;9.876;2023-03-19T06:55:59;100512.56;;;9.69;100.00
19676;BME280;39539;52.202;9.876;2023-03-19T06:58:24;100506.22;;;9.83;100.00
19676;BME280;39539;52.202;9.876;2023-03-19T07:00:49;100513.38;;;9.83;100.00
19676;BME280;39539;52.202;9.876;2023-03-19T07:03:15;100521.72;;;9.86;100.00
19676;BME280;39539;52.202;9.876;2023-03-19T07:05:40;100502.97;;;9.75;100.00
19676;BME280;39539;52.202;9.876;2023-03-19T07:08:06;100513.97;;;9.65;100.00
19676;BME280;39539;52.202;9.876;2023-03-19T07:10:36;100510.91;;;9.68;100.00
19676;BME280;39539;52.202;9.876;2023-03-19T07:13:03;100530.72;;;9.85;100.00
19676;BME280;39539;52.202;9.876;2023-03-19T07:15:29;100508.47;;;9.73;100.00
19676;BME280;39539;52.202;9.876;2023-03-19T07:17:55;100539.28;;;9.94;100.00
19676;BME280;39539;52.202;9.876;2023-03-19T07:20:21;100542.34;;;9.98;100.00
19676;BME280;39539;52.202;9.876;2023-03-19T07:22:49;100535.19;;;9.85;100.00
19676;BME280;39539;52.202;9.876;2023-03-19T07:25:15;100536.84;;;9.79;100.00
19676;BME280;39539;52.202;9.876;2023-03-19T07:27:40;100521.31;;;9.76;100.00
19676;BME280;39539;52.202;9.876;2023-03-19T07:30:06;100540.91;;;9.95;100.00
19676;BME280;39539;52.202;9.876;2023-03-19T07:32:31;100545.41;;;10.08;100.00
19676;BME280;39539;52.202;9.876;2023-03-19T07:34:57;100538.00;;;10.23;100.00
19676;BME280;39539;52.202;9.876;2023-03-19T07:37:24;100541.88;;;10.47;100.00
19676;BME280;39539;52.202;9.876;2023-03-19T07:39:49;100543.25;;;10.63;100.00
19676;BME280;39539;52.202;9.876;2023-03-19T07:42:15;100521.38;;;10.68;100.00
19676;BME280;39539;52.202;9.876;2023-03-19T07:44:40;100515.75;;;10.83;100.00
19676;BME280;39539;52.202;9.876;2023-03-19T07:47:06;100512.00;;;10.97;100.00
19676;BME280;39539;52.202;9.876;2023-03-19T07:49:31;100529.56;;;11.05;100.00
19676;BME280;39539;52.202;9.876;2023-03-19T07:51:56;100530.38;;;11.05;100.00
19676;BME280;39539;52.202;9.876;2023-03-19T07:54:22;100539.03;;;10.94;100.00
19676;BME280;39539;52.202;9.876;2023-03-19T07:56:47;100533.19;;;10.78;100.00
19676;BME280;39539;52.202;9.876;2023-03-19T07:59:13;100542.88;;;10.98;100.00
19676;BME280;39539;52.202;9.876;2023-03-19T08:01:38;100545.06;;;11.14;100.00
19676;BME280;39539;52.202;9.876;2023-03-19T08:04:03;100549.09;;;11.23;100.00
19676;BME280;39539;52.202;9.876;2023-03-19T08:06:29;100543.38;;;11.20;100.00
19676;BME280;39539;52.202;9.876;2023-03-19T08:08:54;100531.75;;;11.14;100.00
19676;BME280;39539;52.202;9.876;2023-03-19T08:11:21;100527.16;;;11.28;100.00
19676;BME280;39539;52.202;9.876;2023-03-19T08:13:46;100546.47;;;11.49;100.00
19676;BME280;39539;52.202;9.876;2023-03-19T08:16:11;100545.78;;;11.60;100.00
19676;BME280;39539;52.202;9.876;2023-03-19T08:18:38;100555.00;;;11.89;100.00
19676;BME280;39539;52.202;9.876;2023-03-19T08:21:03;100562.22;;;12.07;100.00
19676;BME280;39539;52.202;9.876;2023-03-19T08:23:30;100555.53;;;11.98;100.00
19676;BME280;39539;52.202;9.876;2023-03-19T08:25:55;100530.47;;;12.42;100.00
19676;BME280;39539;52.202;9.876;2023-03-19T08:28:21;100548.84;;;13.17;100.00
19676;BME280;39539;52.202;9.876;2023-03-19T08:30:47;100533.81;;;13.04;100.00
19676;BME280;39539;52.202;9.876;2023-03-19T08:33:13;100542.16;;;13.27;100.00
19676;BME280;39539;52.202;9.876;2023-03-19T08:35:38;100541.25;;;13.02;100.00
19676;BME280;39539;52.202;9.876;2023-03-19T08:38:04;100520.34;;;13.30;100.00
19676;BME280;39539;52.202;9.876;2023-03-19T08:40:29;100530.44;;;13.93;100.00
19676;BME280;39539;52.202;9.876;2023-03-19T08:42:55;100520.75;;;14.27;100.00
19676;BME280;39539;52.202;9.876;2023-03-19T08:45:21;100531.50;;;14.68;97.43
19676;BME280;39539;52.202;9.876;2023-03-19T08:47:47;100516.28;;;14.97;97.71
19676;BME280;39539;52.202;9.876;2023-03-19T08:50:14;100524.66;;;15.46;94.88
19676;BME280;39539;52.202;9.876;2023-03-19T08:52:39;100512.94;;;17.13;82.95
19676;BME280;39539;52.202;9.876;2023-03-19T08:55:06;100513.28;;;19.47;73.55
19676;BME280;39539;52.202;9.876;2023-03-19T08:57:32;100514.63;;;19.96;65.76
19676;BME280;39539;52.202;9.876;2023-03-19T09:00:03;100508.69;;;19.58;64.64
19676;BME280;39539;52.202;9.876;2023-03-19T09:02:30;100503.03;;;19.24;67.68
19676;BME280;39539;52.202;9.876;2023-03-19T09:04:55;100493.16;;;18.56;69.85
19676;BME280;39539;52.202;9.876;2023-03-19T09:07:21;100487.63;;;18.78;70.90
19676;BME280;39539;52.202;9.876;2023-03-19T09:09:46;100479.03;;;19.07;69.44
19676;BME280;39539;52.202;9.876;2023-03-19T09:12:14;100490.97;;;20.97;64.10
19676;BME280;39539;52.202;9.876;2023-03-19T09:14:39;100478.63;;;22.37;61.89
19676;BME280;39539;52.202;9.876;2023-03-19T09:17:06;100485.81;;;23.55;59.04
19676;BME280;39539;52.202;9.876;2023-03-19T09:19:32;100488.44;;;23.60;58.72
19676;BME280;39539;52.202;9.876;2023-03-19T09:21:57;100491.72;;;24.45;55.32
19676;BME280;39539;52.202;9.876;2023-03-19T09:24:23;100483.28;;;22.93;55.39
19676;BME280;39539;52.202;9.876;2023-03-19T09:26:48;100494.44;;;23.76;55.76
19676;BME280;39539;52.202;9.876;2023-03-19T09:29:14;100494.00;;;25.02;54.05
19676;BME280;39539;52.202;9.876;2023-03-19T09:31:40;100492.94;;;24.53;54.35
19676;BME280;39539;52.202;9.876;2023-03-19T09:34:06;100498.84;;;23.86;54.78
19676;BME280;39539;52.202;9.876;2023-03-19T09:36:33;100488.47;;;23.08;55.85
19676;BME280;39539;52.202;9.876;2023-03-19T09:38:58;100498.94;;;23.81;56.07
19676;BME280;39539;52.202;9.876;2023-03-19T09:41:48;100500.72;;;23.06;54.63
19676;BME280;39539;52.202;9.876;2023-03-19T09:44:30;100493.47;;;21.91;59.07
19676;BME280;39539;52.202;9.876;2023-03-19T09:47:17;100490.97;;;20.97;60.87
19676;BME280;39539;52.202;9.876;2023-03-19T09:49:49;100484.72;;;19.67;64.08
19676;BME280;39539;52.202;9.876;2023-03-19T09:52:45;100503.28;;;19.99;65.48
19676;BME280;39539;52.202;9.876;2023-03-19T09:57:43;100501.56;;;20.29;64.04
19676;BME280;39539;52.202;9.876;2023-03-19T10:00:40;100499.78;;;21.52;60.62
19676;BME280;39539;52.202;9.876;2023-03-19T10:06:29;100495.41;;;22.58;54.80
19676;BME280;39539;52.202;9.876;2023-03-19T10:14:28;100503.75;;;22.42;56.46
19676;BME280;39539;52.202;9.876;2023-03-19T10:16:58;100496.66;;;22.23;54.94
19676;BME280;39539;52.202;9.876;2023-03-19T10:19:37;100497.53;;;22.13;56.47
19676;BME280;39539;52.202;9.876;2023-03-19T10:22:07;100486.31;;;22.49;55.46
19676;BME280;39539;52.202;9.876;2023-03-19T10:24:39;100485.59;;;22.43;53.54
19676;BME280;39539;52.202;9.876;2023-03-19T10:27:13;100488.19;;;21.76;58.04
19676;BME280;39539;52.202;9.876;2023-03-19T10:29:39;100490.34;;;21.11;55.93
19676;BME280;39539;52.202;9.876;2023-03-19T10:32:34;100496.28;;;20.73;56.33
19676;BME280;39539;52.202;9.876;2023-03-19T10:37:45;100491.81;;;20.38;61.98
19676;BME280;39539;52.202;9.876;2023-03-19T10:40:29;100490.78;;;20.29;61.29
19676;BME280;39539;52.202;9.876;2023-03-19T10:43:17;100501.22;;;20.61;61.44
19676;BME280;39539;52.202;9.876;2023-03-19T10:45:45;100493.38;;;20.49;64.40
19676;BME280;39539;52.202;9.876;2023-03-19T10:48:24;100501.56;;;20.29;64.76
19676;BME280;39539;52.202;9.876;2023-03-19T10:51:00;100499.56;;;19.80;65.14
19676;BME280;39539;52.202;9.876;2023-03-19T10:53:36;100510.34;;;19.59;67.57
19676;BME280;39539;52.202;9.876;2023-03-19T10:56:04;100506.28;;;19.05;66.89
19676;BME280;39539;52.202;9.876;2023-03-19T10:58:32;100509.53;;;19.28;66.26
19676;BME280;39539;52.202;9.876;2023-03-19T11:01:09;100522.44;;;19.36;66.48
19676;BME280;39539;52.202;9.876;2023-03-19T11:06:23;100518.66;;;19.12;68.56
19676;BME280;39539;52.202;9.876;2023-03-19T11:08:57;100527.06;;;19.31;69.88
19676;BME280;39539;52.202;9.876;2023-03-19T11:11:34;100524.63;;;19.49;69.28
19676;BME280;39539;52.202;9.876;2023-03-19T11:14:20;100523.78;;;19.13;69.36
19676;BME280;39539;52.202;9.876;2023-03-19T11:19:31;100518.66;;;19.27;67.07
19676;BME280;39539;52.202;9.876;2023-03-19T11:22:07;100513.53;;;19.10;70.70
19676;BME280;39539;52.202;9.876;2023-03-19T11:24:40;100519.22;;;19.09;71.35
19676;BME280;39539;52.202;9.876;2023-03-19T11:27:08;100530.81;;;19.29;72.83
19676;BME280;39539;52.202;9.876;2023-03-19T11:29:40;100532.41;;;19.36;73.10
19676;BME280;39539;52.202;9.876;2023-03-19T11:34:44;100535.13;;;19.41;71.05
19676;BME280;39539;52.202;9.876;2023-03-19T11:37:24;100516.78;;;19.53;67.56
19676;BME280;39539;52.202;9.876;2023-03-19T11:40:08;100531.88;;;19.95;67.54
19676;BME280;39539;52.202;9.876;2023-03-19T11:42:57;100530.28;;;19.94;66.63
19676;BME280;39539;52.202;9.876;2023-03-19T11:45:32;100517.63;;;19.69;70.23
19676;BME280;39539;52.202;9.876;2023-03-19T11:56:43;100503.78;;;20.16;63.16
19676;BME280;39539;52.202;9.876;2023-03-19T12:12:38;100494.69;;;19.15;68.71
19676;BME280;39539;52.202;9.876;2023-03-19T12:18:00;100509.50;;;19.38;69.34
19676;BME280;39539;52.202;9.876;2023-03-19T12:20:40;100513.56;;;19.56;66.03
19676;BME280;39539;52.202;9.876;2023-03-19T12:26:22;100497.66;;;19.24;66.18
19676;BME280;39539;52.202;9.876;2023-03-19T12:28:57;100500.59;;;19.12;66.25
19676;BME280;39539;52.202;9.876;2023-03-19T12:31:48;100504.91;;;19.03;66.96
19676;BME280;39539;52.202;9.876;2023-03-19T12:34:23;100502.69;;;18.79;66.19
19676;BME280;39539;52.202;9.876;2023-03-19T12:39:31;100501.56;;;18.60;68.82
19676;BME280;39539;52.202;9.876;2023-03-19T12:42:01;100496.41;;;18.53;67.80
19676;BME280;39539;52.202;9.876;2023-03-19T12:44:32;100503.06;;;18.35;69.27
19676;BME280;39539;52.202;9.876;2023-03-19T12:47:12;100498.22;;;18.32;68.94
19676;BME280;39539;52.202;9.876;2023-03-19T12:49:57;100511.38;;;18.34;71.07
19676;BME280;39539;52.202;9.876;2023-03-19T12:52:37;100509.19;;;18.21;70.35
19676;BME280;39539;52.202;9.876;2023-03-19T12:55:22;100510.53;;;18.18;68.58
19676;BME280;39539;52.202;9.876;2023-03-19T12:58:17;100508.34;;;18.20;69.72
19676;BME280;39539;52.202;9.876;2023-03-19T13:01:02;100498.72;;;18.24;69.21
19676;BME280;39539;52.202;9.876;2023-03-19T13:06:30;100509.69;;;18.12;69.25
19676;BME280;39539;52.202;9.876;2023-03-19T13:09:31;100502.38;;;18.08;70.34
19676;BME280;39539;52.202;9.876;2023-03-19T13:12:09;100506.75;;;18.19;67.26
19676;BME280;39539;52.202;9.876;2023-03-19T13:14:47;100506.78;;;18.24;68.68
19676;BME280;39539;52.202;9.876;2023-03-19T13:20:00;100491.13;;;18.16;66.13
19676;BME280;39539;52.202;9.876;2023-03-19T13:22:34;100482.16;;;17.95;66.70
19676;BME280;39539;52.202;9.876;2023-03-19T13:25:02;100481.06;;;17.96;68.84
19676;BME280;39539;52.202;9.876;2023-03-19T13:27:31;100470.06;;;18.03;67.79
19676;BME280;39539;52.202;9.876;2023-03-19T13:30:16;100496.72;;;18.04;67.25
19676;BME280;39539;52.202;9.876;2023-03-19T13:32:50;100498.91;;;18.12;66.26
19676;BME280;39539;52.202;9.876;2023-03-19T13:38:10;100477.91;;;18.14;67.40
19676;BME280;39539;52.202;9.876;2023-03-19T13:40:56;100487.88;;;18.09;68.76
19676;BME280;39539;52.202;9.876;2023-03-19T13:45:52;100481.13;;;18.11;65.82
19676;BME280;39539;52.202;9.876;2023-03-19T13:48:23;100478.38;;;17.96;66.66
19676;BME280;39539;52.202;9.876;2023-03-19T13:53:40;100471.34;;;17.90;67.86
19676;BME280;39539;52.202;9.876;2023-03-19T13:56:14;100477.56;;;17.95;67.80
19676;BME280;39539;52.202;9.876;2023-03-19T13:58:50;100486.75;;;18.05;68.21
19676;BME280;39539;52.202;9.876;2023-03-19T14:03:56;100483.47;;;17.92;68.06
19676;BME280;39539;52.202;9.876;2023-03-19T14:06:37;100473.84;;;18.02;64.53
19676;BME280;39539;52.202;9.876;2023-03-19T14:09:26;100481.44;;;18.15;64.73